sensor_id;sensor_type;location;lat;lon;timestamp;P1;durP1;ratioP1;P2;durP2;ratioP2
45033;SDS011;30771;47.988;-4.186;2023-04-25T00:01:37;14.48;;;4.65;;
45033;SDS011;30771;47.988;-4.186;2023-04-25T00:04:03;18.63;;;5.93;;
45033;SDS011;30771;47.988;-4.186;2023-04-25T00:06:31;16.35;;;4.80;;
45033;SDS011;30771;47.988;-4.186;2023-04-25T00:08:57;13.70;;;5.22;;
45033;SDS011;30771;47.988;-4.186;2023-04-25T00:11:23;14.48;;;5.22;;
45033;SDS011;30771;47.988;-4.186;2023-04-25T00:13:58;13.40;;;5.18;;
45033;SDS011;30771;47.988;-4.186;2023-04-25T00:16:24;18.05;;;5.40;;
45033;SDS011;30771;47.988;-4.186;2023-04-25T00:18:50;15.45;;;5.57;;
45033;SDS011;30771;47.988;-4.186;2023-04-25T00:21:18;13.27;;;5.00;;
45033;SDS011;30771;47.988;-4.186;2023-04-25T00:23:45;16.73;;;5.47;;
45033;SDS011;30771;47.988;-4.186;2023-04-25T00:26:11;23.42;;;5.30;;
45033;SDS011;30771;47.988;-4.186;2023-04-25T00:28:36;15.98;;;5.35;;
45033;SDS011;30771;47.988;-4.186;2023-04-25T00:31:02;23.42;;;5.10;;
45033;SDS011;30771;47.988;-4.186;2023-04-25T00:33:28;23.10;;;5.80;;
45033;SDS011;30771;47.988;-4.186;2023-04-25T00:35:55;18.02;;;5.57;;
45033;SDS011;30771;47.988;-4.186;2023-04-25T00:38:20;20.92;;;4.97;;
45033;SDS011;30771;47.988;-4.186;2023-04-25T00:40:46;20.83;;;5.88;;
45033;SDS011;30771;47.988;-4.186;2023-04-25T00:43:11;18.90;;;5.32;;
45033;SDS011;30771;47.988;-4.186;2023-04-25T00:45:38;17.83;;;5.10;;
45033;SDS011;30771;47.988;-4.186;2023-04-25T00:48:04;17.33;;;5.38;;
45033;SDS011;30771;47.988;-4.186;2023-04-25T00:50:30;19.77;;;5.10;;
45033;SDS011;30771;47.988;-4.186;2023-04-25T00:52:55;13.32;;;5.55;;
45033;SDS011;30771;47.988;-4.186;2023-04-25T00:55:21;18.50;;;5.40;;
45033;SDS011;30771;47.988;-4.186;2023-04-25T00:57:47;14.23;;;5.15;;
45033;SDS011;30771;47.988;-4.186;2023-04-25T01:00:12;15.43;;;5.40;;
45033;SDS011;30771;47.988;-4.186;2023-04-25T01:02:40;13.90;;;4.88;;
45033;SDS011;30771;47.988;-4.186;2023-04-25T01:05:07;16.63;;;4.75;;
45033;SDS011;30771;47.988;-4.186;2023-04-25T01:07:33;13.45;;;4.40;;
45033;SDS011;30771;47.988;-4.186;2023-04-25T01:09:59;11.48;;;4.40;;
45033;SDS011;30771;47.988;-4.186;2023-04-25T01:12:24;13.75;;;4.45;;
45033;SDS011;30771;47.988;-4.186;2023-04-25T01:14:50;11.23;;;4.65;;
45033;SDS011;30771;47.988;-4.186;2023-04-25T01:17:15;14.40;;;4.60;;
45033;SDS011;30771;47.988;-4.186;2023-04-25T01:19:42;12.32;;;4.13;;
45033;SDS011;30771;47.988;-4.186;2023-04-25T01:22:08;16.73;;;4.00;;
45033;SDS011;30771;47.988;-4.186;2023-04-25T01:24:35;14.75;;;4.25;;
45033;SDS011;30771;47.988;-4.186;2023-04-25T01:27:02;17.50;;;4.13;;
45033;SDS011;30771;47.988;-4.186;2023-04-25T01:29:28;10.80;;;4.75;;
45033;SDS011;30771;47.988;-4.186;2023-04-25T01:31:53;17.50;;;4.55;;
45033;SDS011;30771;47.988;-4.186;2023-04-25T01:34:20;9.60;;;3.72;;
45033;SDS011;30771;47.988;-4.186;2023-04-25T01:36:47;12.98;;;4.55;;
45033;SDS011;30771;47.988;-4.186;2023-04-25T01:39:14;17.63;;;4.00;;
45033;SDS011;30771;47.988;-4.186;2023-04-25T01:41:40;14.48;;;4.20;;
45033;SDS011;30771;47.988;-4.186;2023-04-25T01:44:06;19.08;;;4.45;;
45033;SDS011;30771;47.988;-4.186;2023-04-25T01:46:33;15.65;;;4.60;;
45033;SDS011;30771;47.988;-4.186;2023-04-25T01:48:59;16.83;;;5.25;;
45033;SDS011;30771;47.988;-4.186;2023-04-25T01:51:25;16.33;;;4.65;;
45033;SDS011;30771;47.988;-4.186;2023-04-25T01:53:50;10.70;;;4.70;;
45033;SDS011;30771;47.988;-4.186;2023-04-25T01:56:17;15.95;;;5.07;;
45033;SDS011;30771;47.988;-4.186;2023-04-25T01:58:43;12.00;;;4.68;;
45033;SDS011;30771;47.988;-4.186;2023-04-25T02:01:08;13.73;;;4.85;;
45033;SDS011;30771;47.988;-4.186;2023-04-25T02:03:34;16.15;;;4.70;;
45033;SDS011;30771;47.988;-4.186;2023-04-25T02:05:59;13.02;;;5.05;;
45033;SDS011;30771;47.988;-4.186;2023-04-25T02:08:25;12.07;;;5.90;;
45033;SDS011;30771;47.988;-4.186;2023-04-25T02:10:51;13.35;;;4.65;;
45033;SDS011;30771;47.988;-4.186;2023-04-25T02:13:17;12.65;;;4.38;;
45033;SDS011;30771;47.988;-4.186;2023-04-25T02:15:42;11.82;;;4.43;;
45033;SDS011;30771;47.988;-4.186;2023-04-25T02:18:08;15.02;;;5.03;;
45033;SDS011;30771;47.988;-4.186;2023-04-25T02:20:35;14.20;;;5.05;;
45033;SDS011;30771;47.988;-4.186;2023-04-25T02:23:01;29.13;;;12.43;;
45033;SDS011;30771;47.988;-4.186;2023-04-25T02:25:27;17.52;;;7.18;;
45033;SDS011;30771;47.988;-4.186;2023-04-25T02:27:53;16.45;;;5.20;;
45033;SDS011;30771;47.988;-4.186;2023-04-25T02:30:18;10.30;;;5.47;;
45033;SDS011;30771;47.988;-4.186;2023-04-25T02:32:44;16.50;;;4.80;;
45033;SDS011;30771;47.988;-4.186;2023-04-25T02:35:10;15.98;;;5.65;;
45033;SDS011;30771;47.988;-4.186;2023-04-25T02:37:38;17.80;;;4.72;;
45033;SDS011;30771;47.988;-4.186;2023-04-25T02:40:04;14.50;;;5.05;;
45033;SDS011;30771;47.988;-4.186;2023-04-25T02:42:30;13.93;;;5.50;;
45033;SDS011;30771;47.988;-4.186;2023-04-25T02:44:56;15.20;;;5.13;;
45033;SDS011;30771;47.988;-4.186;2023-04-25T02:47:21;14.27;;;5.00;;
45033;SDS011;30771;47.988;-4.186;2023-04-25T02:49:47;18.05;;;4.88;;
45033;SDS011;30771;47.988;-4.186;2023-04-25T02:52:12;13.32;;;4.60;;
45033;SDS011;30771;47.988;-4.186;2023-04-25T02:54:38;17.83;;;4.85;;
45033;SDS011;30771;47.988;-4.186;2023-04-25T02:57:04;12.30;;;5.22;;
45033;SDS011;30771;47.988;-4.186;2023-04-25T02:59:30;11.27;;;5.18;;
45033;SDS011;30771;47.988;-4.186;2023-04-25T03:01:55;16.70;;;5.22;;
45033;SDS011;30771;47.988;-4.186;2023-04-25T03:04:21;12.48;;;5.35;;
45033;SDS011;30771;47.988;-4.186;2023-04-25T03:06:49;16.20;;;5.20;;
45033;SDS011;30771;47.988;-4.186;2023-04-25T03:09:17;16.98;;;5.95;;
45033;SDS011;30771;47.988;-4.186;2023-04-25T03:11:43;14.45;;;5.18;;
45033;SDS011;30771;47.988;-4.186;2023-04-25T03:14:11;19.93;;;6.03;;
45033;SDS011;30771;47.988;-4.186;2023-04-25T03:16:36;16.25;;;5.65;;
45033;SDS011;30771;47.988;-4.186;2023-04-25T03:19:02;15.70;;;5.95;;
45033;SDS011;30771;47.988;-4.186;2023-04-25T03:21:29;17.25;;;6.05;;
45033;SDS011;30771;47.988;-4.186;2023-04-25T03:23:56;12.75;;;5.90;;
45033;SDS011;30771;47.988;-4.186;2023-04-25T03:26:22;16.48;;;5.95;;
45033;SDS011;30771;47.988;-4.186;2023-04-25T03:28:47;18.55;;;5.68;;
45033;SDS011;30771;47.988;-4.186;2023-04-25T03:31:13;17.20;;;6.57;;
45033;SDS011;30771;47.988;-4.186;2023-04-25T03:33:38;14.50;;;5.45;;
45033;SDS011;30771;47.988;-4.186;2023-04-25T03:36:04;12.73;;;5.78;;
45033;SDS011;30771;47.988;-4.186;2023-04-25T03:38:30;9.77;;;5.47;;
45033;SDS011;30771;47.988;-4.186;2023-04-25T03:40:55;15.10;;;6.63;;
45033;SDS011;30771;47.988;-4.186;2023-04-25T03:43:21;12.05;;;5.57;;
45033;SDS011;30771;47.988;-4.186;2023-04-25T03:45:46;12.98;;;5.63;;
45033;SDS011;30771;47.988;-4.186;2023-04-25T03:48:12;20.08;;;6.68;;
45033;SDS011;30771;47.988;-4.186;2023-04-25T03:50:37;14.48;;;5.88;;
45033;SDS011;30771;47.988;-4.186;2023-04-25T03:53:02;19.27;;;7.38;;
45033;SDS011;30771;47.988;-4.186;2023-04-25T03:55:28;19.42;;;7.07;;
45033;SDS011;30771;47.988;-4.186;2023-04-25T03:57:53;11.80;;;5.57;;
45033;SDS011;30771;47.988;-4.186;2023-04-25T04:00:19;18.33;;;5.80;;
45033;SDS011;30771;47.988;-4.186;2023-04-25T04:02:44;14.40;;;6.43;;
45033;SDS011;30771;47.988;-4.186;2023-04-25T04:05:10;17.80;;;6.15;;
45033;SDS011;30771;47.988;-4.186;2023-04-25T04:07:36;14.25;;;5.72;;
45033;SDS011;30771;47.988;-4.186;2023-04-25T04:10:06;10.90;;;6.20;;
45033;SDS011;30771;47.988;-4.186;2023-04-25T04:12:32;15.80;;;6.20;;
45033;SDS011;30771;47.988;-4.186;2023-04-25T04:14:58;18.15;;;6.53;;
45033;SDS011;30771;47.988;-4.186;2023-04-25T04:17:23;15.45;;;6.47;;
45033;SDS011;30771;47.988;-4.186;2023-04-25T04:19:50;22.38;;;6.18;;
45033;SDS011;30771;47.988;-4.186;2023-04-25T04:22:15;18.10;;;6.28;;
45033;SDS011;30771;47.988;-4.186;2023-04-25T04:24:41;15.70;;;5.93;;
45033;SDS011;30771;47.988;-4.186;2023-04-25T04:27:08;13.15;;;6.22;;
45033;SDS011;30771;47.988;-4.186;2023-04-25T04:29:34;18.80;;;6.00;;
45033;SDS011;30771;47.988;-4.186;2023-04-25T04:32:00;18.33;;;6.13;;
45033;SDS011;30771;47.988;-4.186;2023-04-25T04:34:26;16.98;;;6.03;;
45033;SDS011;30771;47.988;-4.186;2023-04-25T04:36:52;13.32;;;6.47;;
45033;SDS011;30771;47.988;-4.186;2023-04-25T04:39:17;17.10;;;7.18;;
45033;SDS011;30771;47.988;-4.186;2023-04-25T04:41:43;13.73;;;6.68;;
45033;SDS011;30771;47.988;-4.186;2023-04-25T04:44:08;22.98;;;6.55;;
45033;SDS011;30771;47.988;-4.186;2023-04-25T04:46:34;15.35;;;6.20;;
45033;SDS011;30771;47.988;-4.186;2023-04-25T04:49:07;16.42;;;7.00;;
45033;SDS011;30771;47.988;-4.186;2023-04-25T04:51:33;14.65;;;6.95;;
45033;SDS011;30771;47.988;-4.186;2023-04-25T04:53:59;14.82;;;6.45;;
45033;SDS011;30771;47.988;-4.186;2023-04-25T04:56:27;23.75;;;7.78;;
45033;SDS011;30771;47.988;-4.186;2023-04-25T04:58:54;15.68;;;7.22;;
45033;SDS011;30771;47.988;-4.186;2023-04-25T05:01:20;18.77;;;7.13;;
45033;SDS011;30771;47.988;-4.186;2023-04-25T05:03:45;17.80;;;7.40;;
45033;SDS011;30771;47.988;-4.186;2023-04-25T05:06:10;18.08;;;7.13;;
45033;SDS011;30771;47.988;-4.186;2023-04-25T05:08:36;23.02;;;6.93;;
45033;SDS011;30771;47.988;-4.186;2023-04-25T05:11:02;13.45;;;6.53;;
45033;SDS011;30771;47.988;-4.186;2023-04-25T05:13:27;18.40;;;7.40;;
45033;SDS011;30771;47.988;-4.186;2023-04-25T05:15:52;17.58;;;7.93;;
45033;SDS011;30771;47.988;-4.186;2023-04-25T05:18:18;24.70;;;7.65;;
45033;SDS011;30771;47.988;-4.186;2023-04-25T05:20:46;15.98;;;7.63;;
45033;SDS011;30771;47.988;-4.186;2023-04-25T05:23:12;20.55;;;7.22;;
45033;SDS011;30771;47.988;-4.186;2023-04-25T05:25:37;18.35;;;8.18;;
45033;SDS011;30771;47.988;-4.186;2023-04-25T05:28:02;19.60;;;8.05;;
45033;SDS011;30771;47.988;-4.186;2023-04-25T05:30:28;17.42;;;7.97;;
45033;SDS011;30771;47.988;-4.186;2023-04-25T05:32:53;18.13;;;7.18;;
45033;SDS011;30771;47.988;-4.186;2023-04-25T05:35:18;15.15;;;7.78;;
45033;SDS011;30771;47.988;-4.186;2023-04-25T05:37:44;13.82;;;8.52;;
45033;SDS011;30771;47.988;-4.186;2023-04-25T05:40:09;18.35;;;7.78;;
45033;SDS011;30771;47.988;-4.186;2023-04-25T05:42:35;19.52;;;7.47;;
45033;SDS011;30771;47.988;-4.186;2023-04-25T05:45:00;14.32;;;7.25;;
45033;SDS011;30771;47.988;-4.186;2023-04-25T05:47:26;14.55;;;8.15;;
45033;SDS011;30771;47.988;-4.186;2023-04-25T05:49:51;17.30;;;7.97;;
45033;SDS011;30771;47.988;-4.186;2023-04-25T05:52:17;20.08;;;7.65;;
45033;SDS011;30771;47.988;-4.186;2023-04-25T05:54:42;20.20;;;9.68;;
45033;SDS011;30771;47.988;-4.186;2023-04-25T05:57:07;19.35;;;10.15;;
45033;SDS011;30771;47.988;-4.186;2023-04-25T05:59:33;21.25;;;9.82;;
45033;SDS011;30771;47.988;-4.186;2023-04-25T06:01:58;16.85;;;9.05;;
45033;SDS011;30771;47.988;-4.186;2023-04-25T06:04:24;18.20;;;10.15;;
45033;SDS011;30771;47.988;-4.186;2023-04-25T06:06:50;16.05;;;8.35;;
45033;SDS011;30771;47.988;-4.186;2023-04-25T06:09:15;21.50;;;8.55;;
45033;SDS011;30771;47.988;-4.186;2023-04-25T06:11:41;25.50;;;8.68;;
45033;SDS011;30771;47.988;-4.186;2023-04-25T06:14:09;15.70;;;7.75;;
45033;SDS011;30771;47.988;-4.186;2023-04-25T06:16:34;13.65;;;7.85;;
45033;SDS011;30771;47.988;-4.186;2023-04-25T06:19:00;20.15;;;8.02;;
45033;SDS011;30771;47.988;-4.186;2023-04-25T06:21:25;23.23;;;8.70;;
45033;SDS011;30771;47.988;-4.186;2023-04-25T06:23:52;17.50;;;7.95;;
45033;SDS011;30771;47.988;-4.186;2023-04-25T06:26:17;19.40;;;8.07;;
45033;SDS011;30771;47.988;-4.186;2023-04-25T06:28:43;17.52;;;8.27;;
45033;SDS011;30771;47.988;-4.186;2023-04-25T06:31:08;25.73;;;9.32;;
45033;SDS011;30771;47.988;-4.186;2023-04-25T06:33:34;38.08;;;12.15;;
45033;SDS011;30771;47.988;-4.186;2023-04-25T06:35:59;26.92;;;10.35;;
45033;SDS011;30771;47.988;-4.186;2023-04-25T06:38:24;25.35;;;9.80;;
45033;SDS011;30771;47.988;-4.186;2023-04-25T06:40:50;20.65;;;8.88;;
45033;SDS011;30771;47.988;-4.186;2023-04-25T06:43:16;16.60;;;8.23;;
45033;SDS011;30771;47.988;-4.186;2023-04-25T06:45:41;16.33;;;9.05;;
45033;SDS011;30771;47.988;-4.186;2023-04-25T06:48:07;20.85;;;7.97;;
45033;SDS011;30771;47.988;-4.186;2023-04-25T06:50:33;18.95;;;8.55;;
45033;SDS011;30771;47.988;-4.186;2023-04-25T06:52:59;18.35;;;7.00;;
45033;SDS011;30771;47.988;-4.186;2023-04-25T06:55:26;15.73;;;6.82;;
45033;SDS011;30771;47.988;-4.186;2023-04-25T06:57:52;18.85;;;7.55;;
45033;SDS011;30771;47.988;-4.186;2023-04-25T07:00:17;16.45;;;7.57;;
45033;SDS011;30771;47.988;-4.186;2023-04-25T07:02:43;19.50;;;7.70;;
45033;SDS011;30771;47.988;-4.186;2023-04-25T07:05:08;14.65;;;7.47;;
45033;SDS011;30771;47.988;-4.186;2023-04-25T07:07:34;15.88;;;7.40;;
45033;SDS011;30771;47.988;-4.186;2023-04-25T07:09:59;15.52;;;7.85;;
45033;SDS011;30771;47.988;-4.186;2023-04-25T07:12:25;17.92;;;7.00;;
45033;SDS011;30771;47.988;-4.186;2023-04-25T07:14:50;19.85;;;6.88;;
45033;SDS011;30771;47.988;-4.186;2023-04-25T07:17:16;14.32;;;6.93;;
45033;SDS011;30771;47.988;-4.186;2023-04-25T07:19:41;19.40;;;7.80;;
45033;SDS011;30771;47.988;-4.186;2023-04-25T07:22:07;18.77;;;7.47;;
45033;SDS011;30771;47.988;-4.186;2023-04-25T07:24:32;22.58;;;7.38;;
45033;SDS011;30771;47.988;-4.186;2023-04-25T07:26:57;15.43;;;7.28;;
45033;SDS011;30771;47.988;-4.186;2023-04-25T07:29:29;19.10;;;8.27;;
45033;SDS011;30771;47.988;-4.186;2023-04-25T07:32:11;15.80;;;7.22;;
45033;SDS011;30771;47.988;-4.186;2023-04-25T07:34:38;19.20;;;8.23;;
45033;SDS011;30771;47.988;-4.186;2023-04-25T07:37:04;20.02;;;7.38;;
45033;SDS011;30771;47.988;-4.186;2023-04-25T07:39:30;17.08;;;7.75;;
45033;SDS011;30771;47.988;-4.186;2023-04-25T07:41:55;17.35;;;7.65;;
45033;SDS011;30771;47.988;-4.186;2023-04-25T07:44:23;17.73;;;8.00;;
45033;SDS011;30771;47.988;-4.186;2023-04-25T07:46:49;14.45;;;7.72;;
45033;SDS011;30771;47.988;-4.186;2023-04-25T07:49:14;16.60;;;7.57;;
45033;SDS011;30771;47.988;-4.186;2023-04-25T07:51:40;15.18;;;7.03;;
45033;SDS011;30771;47.988;-4.186;2023-04-25T07:54:06;13.68;;;7.25;;
45033;SDS011;30771;47.988;-4.186;2023-04-25T07:56:32;19.23;;;7.72;;
45033;SDS011;30771;47.988;-4.186;2023-04-25T07:58:57;18.48;;;6.90;;
45033;SDS011;30771;47.988;-4.186;2023-04-25T08:01:23;13.23;;;6.85;;
45033;SDS011;30771;47.988;-4.186;2023-04-25T08:03:48;12.63;;;6.70;;
45033;SDS011;30771;47.988;-4.186;2023-04-25T08:06:14;13.32;;;6.45;;
45033;SDS011;30771;47.988;-4.186;2023-04-25T08:08:40;16.48;;;6.18;;
45033;SDS011;30771;47.988;-4.186;2023-04-25T08:11:05;16.30;;;6.03;;
45033;SDS011;30771;47.988;-4.186;2023-04-25T08:13:30;11.63;;;5.45;;
45033;SDS011;30771;47.988;-4.186;2023-04-25T08:15:56;12.73;;;5.30;;
45033;SDS011;30771;47.988;-4.186;2023-04-25T08:18:21;17.23;;;6.50;;
45033;SDS011;30771;47.988;-4.186;2023-04-25T08:20:46;12.30;;;5.35;;
45033;SDS011;30771;47.988;-4.186;2023-04-25T08:23:12;9.02;;;4.68;;
45033;SDS011;30771;47.988;-4.186;2023-04-25T08:25:38;10.50;;;5.25;;
45033;SDS011;30771;47.988;-4.186;2023-04-25T08:28:03;12.85;;;5.80;;
45033;SDS011;30771;47.988;-4.186;2023-04-25T08:30:29;13.95;;;5.55;;
45033;SDS011;30771;47.988;-4.186;2023-04-25T08:32:54;10.30;;;5.20;;
45033;SDS011;30771;47.988;-4.186;2023-04-25T08:35:20;14.18;;;5.65;;
45033;SDS011;30771;47.988;-4.186;2023-04-25T08:37:46;10.38;;;4.60;;
45033;SDS011;30771;47.988;-4.186;2023-04-25T08:40:12;13.57;;;5.03;;
45033;SDS011;30771;47.988;-4.186;2023-04-25T08:42:39;12.73;;;4.82;;
45033;SDS011;30771;47.988;-4.186;2023-04-25T08:45:06;12.48;;;5.13;;
45033;SDS011;30771;47.988;-4.186;2023-04-25T08:47:33;10.95;;;5.10;;
45033;SDS011;30771;47.988;-4.186;2023-04-25T08:49:59;9.43;;;5.05;;
45033;SDS011;30771;47.988;-4.186;2023-04-25T08:52:27;10.40;;;4.95;;
45033;SDS011;30771;47.988;-4.186;2023-04-25T08:54:55;16.42;;;4.88;;
45033;SDS011;30771;47.988;-4.186;2023-04-25T08:57:22;10.80;;;4.38;;
45033;SDS011;30771;47.988;-4.186;2023-04-25T08:59:48;8.55;;;3.53;;
45033;SDS011;30771;47.988;-4.186;2023-04-25T09:02:14;9.15;;;3.88;;
45033;SDS011;30771;47.988;-4.186;2023-04-25T09:04:42;6.65;;;3.17;;
45033;SDS011;30771;47.988;-4.186;2023-04-25T09:07:08;6.15;;;3.17;;
45033;SDS011;30771;47.988;-4.186;2023-04-25T09:09:34;10.27;;;3.17;;
45033;SDS011;30771;47.988;-4.186;2023-04-25T09:12:00;5.43;;;3.03;;
45033;SDS011;30771;47.988;-4.186;2023-04-25T09:14:26;9.18;;;3.20;;
45033;SDS011;30771;47.988;-4.186;2023-04-25T09:19:21;4.80;;;2.70;;
45033;SDS011;30771;47.988;-4.186;2023-04-25T09:22:05;6.93;;;2.85;;
45033;SDS011;30771;47.988;-4.186;2023-04-25T09:24:40;8.45;;;3.03;;
45033;SDS011;30771;47.988;-4.186;2023-04-25T09:27:10;5.13;;;2.80;;
45033;SDS011;30771;47.988;-4.186;2023-04-25T09:29:37;6.93;;;3.05;;
45033;SDS011;30771;47.988;-4.186;2023-04-25T09:32:10;5.72;;;2.70;;
45033;SDS011;30771;47.988;-4.186;2023-04-25T09:34:40;5.95;;;3.33;;
45033;SDS011;30771;47.988;-4.186;2023-04-25T09:37:08;7.45;;;2.92;;
45033;SDS011;30771;47.988;-4.186;2023-04-25T09:39:35;7.82;;;3.10;;
45033;SDS011;30771;47.988;-4.186;2023-04-25T09:42:02;7.25;;;2.97;;
45033;SDS011;30771;47.988;-4.186;2023-04-25T09:44:28;6.22;;;3.17;;
45033;SDS011;30771;47.988;-4.186;2023-04-25T09:46:53;9.02;;;2.65;;
45033;SDS011;30771;47.988;-4.186;2023-04-25T09:49:19;5.72;;;2.72;;
45033;SDS011;30771;47.988;-4.186;2023-04-25T09:51:55;8.48;;;3.08;;
45033;SDS011;30771;47.988;-4.186;2023-04-25T09:54:22;6.68;;;2.70;;
45033;SDS011;30771;47.988;-4.186;2023-04-25T09:56:52;4.50;;;2.80;;
45033;SDS011;30771;47.988;-4.186;2023-04-25T09:59:21;8.00;;;3.40;;
45033;SDS011;30771;47.988;-4.186;2023-04-25T10:01:50;9.52;;;3.95;;
45033;SDS011;30771;47.988;-4.186;2023-04-25T10:04:19;9.27;;;2.90;;
45033;SDS011;30771;47.988;-4.186;2023-04-25T10:06:51;8.32;;;2.35;;
45033;SDS011;30771;47.988;-4.186;2023-04-25T10:09:21;5.40;;;2.72;;
45033;SDS011;30771;47.988;-4.186;2023-04-25T10:11:51;5.70;;;2.72;;
45033;SDS011;30771;47.988;-4.186;2023-04-25T10:14:17;5.32;;;2.70;;
45033;SDS011;30771;47.988;-4.186;2023-04-25T10:16:43;7.25;;;2.40;;
45033;SDS011;30771;47.988;-4.186;2023-04-25T10:19:10;5.85;;;2.70;;
45033;SDS011;30771;47.988;-4.186;2023-04-25T10:21:36;5.70;;;2.50;;
45033;SDS011;30771;47.988;-4.186;2023-04-25T10:24:11;5.32;;;2.38;;
45033;SDS011;30771;47.988;-4.186;2023-04-25T10:26:37;6.50;;;2.85;;
45033;SDS011;30771;47.988;-4.186;2023-04-25T10:29:03;5.88;;;2.72;;
45033;SDS011;30771;47.988;-4.186;2023-04-25T10:31:29;6.53;;;2.80;;
45033;SDS011;30771;47.988;-4.186;2023-04-25T10:33:55;6.47;;;2.60;;
45033;SDS011;30771;47.988;-4.186;2023-04-25T10:36:22;7.40;;;3.00;;
45033;SDS011;30771;47.988;-4.186;2023-04-25T10:38:49;5.28;;;2.72;;
45033;SDS011;30771;47.988;-4.186;2023-04-25T10:41:17;5.35;;;2.60;;
45033;SDS011;30771;47.988;-4.186;2023-04-25T10:43:44;5.03;;;2.72;;
45033;SDS011;30771;47.988;-4.186;2023-04-25T10:48:46;7.03;;;2.92;;
45033;SDS011;30771;47.988;-4.186;2023-04-25T10:51:16;5.65;;;2.78;;
45033;SDS011;30771;47.988;-4.186;2023-04-25T10:56:20;5.07;;;2.60;;
45033;SDS011;30771;47.988;-4.186;2023-04-25T10:58:47;6.40;;;2.60;;
45033;SDS011;30771;47.988;-4.186;2023-04-25T11:01:13;8.00;;;2.85;;
45033;SDS011;30771;47.988;-4.186;2023-04-25T11:03:40;6.38;;;2.20;;
45033;SDS011;30771;47.988;-4.186;2023-04-25T11:06:12;6.63;;;2.50;;
45033;SDS011;30771;47.988;-4.186;2023-04-25T11:08:54;3.97;;;2.13;;
45033;SDS011;30771;47.988;-4.186;2023-04-25T11:11:20;4.05;;;2.05;;
45033;SDS011;30771;47.988;-4.186;2023-04-25T11:13:48;5.10;;;2.30;;
45033;SDS011;30771;47.988;-4.186;2023-04-25T11:16:15;6.15;;;2.90;;
45033;SDS011;30771;47.988;-4.186;2023-04-25T11:18:41;6.40;;;2.50;;
45033;SDS011;30771;47.988;-4.186;2023-04-25T11:21:07;6.97;;;2.80;;
45033;SDS011;30771;47.988;-4.186;2023-04-25T11:23:32;9.55;;;3.17;;
45033;SDS011;30771;47.988;-4.186;2023-04-25T11:25:57;6.75;;;2.83;;
45033;SDS011;30771;47.988;-4.186;2023-04-25T11:28:25;6.95;;;3.05;;
45033;SDS011;30771;47.988;-4.186;2023-04-25T11:30:51;4.55;;;2.70;;
45033;SDS011;30771;47.988;-4.186;2023-04-25T11:33:17;7.18;;;2.80;;
45033;SDS011;30771;47.988;-4.186;2023-04-25T11:35:43;8.02;;;2.90;;
45033;SDS011;30771;47.988;-4.186;2023-04-25T11:38:08;6.78;;;3.03;;
45033;SDS011;30771;47.988;-4.186;2023-04-25T11:40:35;5.57;;;2.35;;
45033;SDS011;30771;47.988;-4.186;2023-04-25T11:43:00;7.35;;;2.47;;
45033;SDS011;30771;47.988;-4.186;2023-04-25T11:45:26;4.00;;;2.30;;
45033;SDS011;30771;47.988;-4.186;2023-04-25T11:47:55;3.20;;;2.42;;
45033;SDS011;30771;47.988;-4.186;2023-04-25T11:50:23;5.38;;;2.00;;
45033;SDS011;30771;47.988;-4.186;2023-04-25T11:52:49;6.00;;;2.10;;
45033;SDS011;30771;47.988;-4.186;2023-04-25T11:55:19;8.77;;;2.22;;
45033;SDS011;30771;47.988;-4.186;2023-04-25T11:57:46;6.22;;;2.05;;
45033;SDS011;30771;47.988;-4.186;2023-04-25T12:00:17;5.00;;;2.13;;
45033;SDS011;30771;47.988;-4.186;2023-04-25T12:02:47;6.93;;;2.50;;
45033;SDS011;30771;47.988;-4.186;2023-04-25T12:05:16;9.60;;;3.50;;
45033;SDS011;30771;47.988;-4.186;2023-04-25T12:07:42;10.57;;;3.65;;
45033;SDS011;30771;47.988;-4.186;2023-04-25T12:10:09;7.57;;;2.95;;
45033;SDS011;30771;47.988;-4.186;2023-04-25T12:12:41;7.35;;;2.55;;
45033;SDS011;30771;47.988;-4.186;2023-04-25T12:15:12;7.00;;;2.95;;
45033;SDS011;30771;47.988;-4.186;2023-04-25T12:17:39;8.20;;;3.03;;
45033;SDS011;30771;47.988;-4.186;2023-04-25T12:20:05;7.05;;;2.60;;
45033;SDS011;30771;47.988;-4.186;2023-04-25T12:22:32;7.18;;;2.25;;
45033;SDS011;30771;47.988;-4.186;2023-04-25T12:24:59;5.82;;;2.25;;
45033;SDS011;30771;47.988;-4.186;2023-04-25T12:27:25;6.60;;;2.25;;
45033;SDS011;30771;47.988;-4.186;2023-04-25T12:29:52;6.80;;;2.60;;
45033;SDS011;30771;47.988;-4.186;2023-04-25T12:32:19;6.70;;;2.60;;
45033;SDS011;30771;47.988;-4.186;2023-04-25T12:34:45;8.98;;;3.08;;
45033;SDS011;30771;47.988;-4.186;2023-04-25T12:37:11;5.53;;;2.40;;
45033;SDS011;30771;47.988;-4.186;2023-04-25T12:39:36;7.00;;;2.95;;
45033;SDS011;30771;47.988;-4.186;2023-04-25T12:42:02;6.90;;;2.63;;
45033;SDS011;30771;47.988;-4.186;2023-04-25T12:44:28;5.88;;;2.35;;
45033;SDS011;30771;47.988;-4.186;2023-04-25T12:46:59;5.60;;;2.60;;
45033;SDS011;30771;47.988;-4.186;2023-04-25T12:49:25;9.07;;;2.92;;
45033;SDS011;30771;47.988;-4.186;2023-04-25T12:51:50;6.25;;;2.60;;
45033;SDS011;30771;47.988;-4.186;2023-04-25T12:54:16;8.68;;;2.70;;
45033;SDS011;30771;47.988;-4.186;2023-04-25T12:56:42;12.00;;;3.00;;
45033;SDS011;30771;47.988;-4.186;2023-04-25T12:59:07;6.50;;;2.97;;
45033;SDS011;30771;47.988;-4.186;2023-04-25T13:01:34;7.97;;;2.70;;
45033;SDS011;30771;47.988;-4.186;2023-04-25T13:03:59;7.78;;;3.08;;
45033;SDS011;30771;47.988;-4.186;2023-04-25T13:06:25;8.73;;;3.10;;
45033;SDS011;30771;47.988;-4.186;2023-04-25T13:08:51;7.90;;;3.13;;
45033;SDS011;30771;47.988;-4.186;2023-04-25T13:11:16;5.57;;;2.58;;
45033;SDS011;30771;47.988;-4.186;2023-04-25T13:13:42;4.30;;;2.15;;
45033;SDS011;30771;47.988;-4.186;2023-04-25T13:16:08;5.03;;;2.28;;
45033;SDS011;30771;47.988;-4.186;2023-04-25T13:18:34;4.93;;;2.20;;
45033;SDS011;30771;47.988;-4.186;2023-04-25T13:21:00;10.15;;;2.67;;
45033;SDS011;30771;47.988;-4.186;2023-04-25T13:23:26;7.05;;;3.10;;
45033;SDS011;30771;47.988;-4.186;2023-04-25T13:25:53;7.07;;;3.33;;
45033;SDS011;30771;47.988;-4.186;2023-04-25T13:28:19;11.00;;;3.30;;
45033;SDS011;30771;47.988;-4.186;2023-04-25T13:30:44;8.68;;;2.80;;
45033;SDS011;30771;47.988;-4.186;2023-04-25T13:33:10;6.68;;;2.70;;
45033;SDS011;30771;47.988;-4.186;2023-04-25T13:35:36;8.70;;;2.90;;
45033;SDS011;30771;47.988;-4.186;2023-04-25T13:38:02;5.50;;;2.80;;
45033;SDS011;30771;47.988;-4.186;2023-04-25T13:40:28;8.95;;;3.13;;
45033;SDS011;30771;47.988;-4.186;2023-04-25T13:42:54;8.57;;;2.72;;
45033;SDS011;30771;47.988;-4.186;2023-04-25T13:45:20;6.00;;;2.70;;
45033;SDS011;30771;47.988;-4.186;2023-04-25T13:47:46;7.45;;;3.10;;
45033;SDS011;30771;47.988;-4.186;2023-04-25T13:50:11;7.95;;;2.72;;
45033;SDS011;30771;47.988;-4.186;2023-04-25T13:52:38;9.05;;;3.00;;
45033;SDS011;30771;47.988;-4.186;2023-04-25T13:55:04;7.28;;;3.40;;
45033;SDS011;30771;47.988;-4.186;2023-04-25T13:57:32;9.07;;;3.38;;
45033;SDS011;30771;47.988;-4.186;2023-04-25T13:59:57;10.77;;;3.40;;
45033;SDS011;30771;47.988;-4.186;2023-04-25T14:02:23;11.25;;;3.42;;
45033;SDS011;30771;47.988;-4.186;2023-04-25T14:04:48;7.38;;;3.30;;
45033;SDS011;30771;47.988;-4.186;2023-04-25T14:07:14;7.85;;;2.90;;
45033;SDS011;30771;47.988;-4.186;2023-04-25T14:09:44;9.07;;;3.45;;
45033;SDS011;30771;47.988;-4.186;2023-04-25T14:12:09;5.30;;;2.50;;
45033;SDS011;30771;47.988;-4.186;2023-04-25T14:14:35;6.65;;;2.53;;
45033;SDS011;30771;47.988;-4.186;2023-04-25T14:17:00;4.47;;;2.20;;
45033;SDS011;30771;47.988;-4.186;2023-04-25T14:19:26;9.70;;;2.40;;
45033;SDS011;30771;47.988;-4.186;2023-04-25T14:21:51;5.47;;;2.28;;
45033;SDS011;30771;47.988;-4.186;2023-04-25T14:24:17;6.40;;;2.33;;
45033;SDS011;30771;47.988;-4.186;2023-04-25T14:26:43;7.90;;;2.10;;
45033;SDS011;30771;47.988;-4.186;2023-04-25T14:29:08;7.20;;;3.30;;